sensor_id;sensor_type;location;lat;lon;timestamp;P1;durP1;ratioP1;P2;durP2;ratioP2
31638;SDS011;18248;51.522;7.020;2022-10-31T00:50:49;31.35;;;15.73;;
31638;SDS011;18248;51.522;7.020;2022-10-31T00:53:48;30.42;;;12.60;;
31638;SDS011;18248;51.522;7.020;2022-10-31T00:56:46;25.75;;;11.95;;
31638;SDS011;18248;51.522;7.020;2022-10-31T00:59:45;19.63;;;10.38;;
31638;SDS011;18248;51.522;7.020;2022-10-31T01:02:43;23.40;;;11.40;;
31638;SDS011;18248;51.522;7.020;2022-10-31T01:05:42;23.27;;;11.75;;
31638;SDS011;18248;51.522;7.020;2022-10-31T01:08:41;36.38;;;14.20;;
31638;SDS011;18248;51.522;7.020;2022-10-31T01:11:42;37.72;;;15.15;;
31638;SDS011;18248;51.522;7.020;2022-10-31T01:14:44;31.80;;;13.48;;
31638;SDS011;18248;51.522;7.020;2022-10-31T01:17:43;32.17;;;14.25;;
31638;SDS011;18248;51.522;7.020;2022-10-31T01:20:41;22.33;;;10.82;;
31638;SDS011;18248;51.522;7.020;2022-10-31T01:23:40;31.30;;;12.60;;
31638;SDS011;18248;51.522;7.020;2022-10-31T01:26:39;34.72;;;15.18;;
31638;SDS011;18248;51.522;7.020;2022-10-31T01:29:37;34.33;;;15.65;;
31638;SDS011;18248;51.522;7.020;2022-10-31T01:32:36;37.78;;;15.50;;
31638;SDS011;18248;51.522;7.020;2022-10-31T01:35:35;32.97;;;17.63;;
31638;SDS011;18248;51.522;7.020;2022-10-31T01:38:34;30.17;;;15.65;;
31638;SDS011;18248;51.522;7.020;2022-10-31T01:41:33;40.33;;;18.20;;
31638;SDS011;18248;51.522;7.020;2022-10-31T01:47:36;25.15;;;12.25;;
31638;SDS011;18248;51.522;7.020;2022-10-31T01:50:42;21.77;;;12.00;;
31638;SDS011;18248;51.522;7.020;2022-10-31T01:53:44;21.75;;;11.43;;
31638;SDS011;18248;51.522;7.020;2022-10-31T01:56:44;39.17;;;15.30;;
31638;SDS011;18248;51.522;7.020;2022-10-31T01:59:49;35.40;;;14.85;;
31638;SDS011;18248;51.522;7.020;2022-10-31T02:02:52;17.20;;;10.23;;
31638;SDS011;18248;51.522;7.020;2022-10-31T02:05:54;31.15;;;13.40;;
31638;SDS011;18248;51.522;7.020;2022-10-31T02:08:55;30.52;;;11.50;;
31638;SDS011;18248;51.522;7.020;2022-10-31T02:11:57;17.55;;;9.50;;
31638;SDS011;18248;51.522;7.020;2022-10-31T02:14:57;19.15;;;9.57;;
31638;SDS011;18248;51.522;7.020;2022-10-31T02:17:58;21.15;;;10.68;;
31638;SDS011;18248;51.522;7.020;2022-10-31T02:27:44;20.58;;;10.10;;
31638;SDS011;18248;51.522;7.020;2022-10-31T02:38:13;21.50;;;9.75;;
31638;SDS011;18248;51.522;7.020;2022-10-31T02:41:47;17.20;;;9.50;;
31638;SDS011;18248;51.522;7.020;2022-10-31T02:45:21;26.38;;;13.82;;
31638;SDS011;18248;51.522;7.020;2022-10-31T02:48:31;17.98;;;10.18;;
31638;SDS011;18248;51.522;7.020;2022-10-31T02:51:34;16.40;;;9.75;;
31638;SDS011;18248;51.522;7.020;2022-10-31T02:54:34;21.48;;;9.82;;
31638;SDS011;18248;51.522;7.020;2022-10-31T02:57:32;21.42;;;10.75;;
31638;SDS011;18248;51.522;7.020;2022-10-31T03:00:36;18.73;;;9.80;;
31638;SDS011;18248;51.522;7.020;2022-10-31T03:07:07;17.70;;;9.95;;
31638;SDS011;18248;51.522;7.020;2022-10-31T03:10:37;24.13;;;10.82;;
31638;SDS011;18248;51.522;7.020;2022-10-31T03:13:52;22.05;;;10.70;;
31638;SDS011;18248;51.522;7.020;2022-10-31T03:16:59;20.67;;;10.07;;
31638;SDS011;18248;51.522;7.020;2022-10-31T03:20:04;21.70;;;10.13;;
31638;SDS011;18248;51.522;7.020;2022-10-31T03:23:09;35.15;;;14.25;;
31638;SDS011;18248;51.522;7.020;2022-10-31T03:26:11;27.20;;;14.23;;
31638;SDS011;18248;51.522;7.020;2022-10-31T03:29:13;23.25;;;11.63;;
31638;SDS011;18248;51.522;7.020;2022-10-31T03:32:17;20.38;;;10.82;;
31638;SDS011;18248;51.522;7.020;2022-10-31T03:35:22;24.73;;;10.20;;
31638;SDS011;18248;51.522;7.020;2022-10-31T03:38:22;23.58;;;10.88;;
31638;SDS011;18248;51.522;7.020;2022-10-31T03:41:21;24.05;;;11.40;;
31638;SDS011;18248;51.522;7.020;2022-10-31T03:44:25;24.42;;;9.98;;
31638;SDS011;18248;51.522;7.020;2022-10-31T03:47:27;21.10;;;11.00;;
31638;SDS011;18248;51.522;7.020;2022-10-31T03:50:28;18.00;;;10.50;;
31638;SDS011;18248;51.522;7.020;2022-10-31T03:53:34;22.92;;;9.60;;
31638;SDS011;18248;51.522;7.020;2022-10-31T03:56:53;18.27;;;9.25;;
31638;SDS011;18248;51.522;7.020;2022-10-31T04:00:19;27.02;;;12.45;;
31638;SDS011;18248;51.522;7.020;2022-10-31T04:03:19;26.85;;;12.07;;
31638;SDS011;18248;51.522;7.020;2022-10-31T04:06:24;19.73;;;11.70;;
31638;SDS011;18248;51.522;7.020;2022-10-31T04:09:23;18.20;;;9.52;;
31638;SDS011;18248;51.522;7.020;2022-10-31T04:12:25;19.10;;;9.45;;
31638;SDS011;18248;51.522;7.020;2022-10-31T04:15:25;16.60;;;8.77;;
31638;SDS011;18248;51.522;7.020;2022-10-31T04:18:25;13.88;;;8.15;;
31638;SDS011;18248;51.522;7.020;2022-10-31T04:21:27;24.50;;;10.50;;
31638;SDS011;18248;51.522;7.020;2022-10-31T04:24:27;25.53;;;12.40;;
31638;SDS011;18248;51.522;7.020;2022-10-31T04:27:25;23.45;;;11.40;;
31638;SDS011;18248;51.522;7.020;2022-10-31T04:30:24;18.65;;;9.98;;
31638;SDS011;18248;51.522;7.020;2022-10-31T04:33:23;23.83;;;10.20;;
31638;SDS011;18248;51.522;7.020;2022-10-31T04:36:21;19.40;;;9.10;;
31638;SDS011;18248;51.522;7.020;2022-10-31T04:39:21;23.48;;;10.52;;
31638;SDS011;18248;51.522;7.020;2022-10-31T04:42:20;19.13;;;9.88;;
31638;SDS011;18248;51.522;7.020;2022-10-31T04:45:18;16.70;;;8.77;;
31638;SDS011;18248;51.522;7.020;2022-10-31T04:48:17;21.55;;;10.35;;
31638;SDS011;18248;51.522;7.020;2022-10-31T04:51:15;17.90;;;9.15;;
31638;SDS011;18248;51.522;7.020;2022-10-31T04:54:14;15.25;;;9.02;;
31638;SDS011;18248;51.522;7.020;2022-10-31T04:57:12;26.65;;;11.88;;
31638;SDS011;18248;51.522;7.020;2022-10-31T05:00:12;19.45;;;11.35;;
31638;SDS011;18248;51.522;7.020;2022-10-31T05:03:12;19.70;;;10.52;;
31638;SDS011;18248;51.522;7.020;2022-10-31T05:06:10;17.40;;;8.75;;
31638;SDS011;18248;51.522;7.020;2022-10-31T05:09:10;23.85;;;9.93;;
31638;SDS011;18248;51.522;7.020;2022-10-31T05:12:10;19.13;;;8.35;;
31638;SDS011;18248;51.522;7.020;2022-10-31T05:15:09;18.80;;;9.52;;
31638;SDS011;18248;51.522;7.020;2022-10-31T05:18:07;19.48;;;7.95;;
31638;SDS011;18248;51.522;7.020;2022-10-31T05:21:06;14.15;;;8.68;;
31638;SDS011;18248;51.522;7.020;2022-10-31T05:24:04;16.90;;;8.07;;
31638;SDS011;18248;51.522;7.020;2022-10-31T05:27:03;17.95;;;8.68;;
31638;SDS011;18248;51.522;7.020;2022-10-31T05:30:03;18.13;;;9.43;;
31638;SDS011;18248;51.522;7.020;2022-10-31T05:33:02;15.57;;;7.65;;
31638;SDS011;18248;51.522;7.020;2022-10-31T05:36:01;20.67;;;8.38;;
31638;SDS011;18248;51.522;7.020;2022-10-31T05:38:59;23.45;;;9.82;;
31638;SDS011;18248;51.522;7.020;2022-10-31T05:41:59;20.25;;;9.85;;
31638;SDS011;18248;51.522;7.020;2022-10-31T05:44:58;26.80;;;12.82;;
31638;SDS011;18248;51.522;7.020;2022-10-31T05:47:57;18.55;;;9.30;;
31638;SDS011;18248;51.522;7.020;2022-10-31T05:50:57;15.65;;;8.07;;
31638;SDS011;18248;51.522;7.020;2022-10-31T05:53:55;17.50;;;9.35;;
31638;SDS011;18248;51.522;7.020;2022-10-31T05:56:54;19.42;;;9.45;;
31638;SDS011;18248;51.522;7.020;2022-10-31T05:59:52;17.42;;;9.43;;
31638;SDS011;18248;51.522;7.020;2022-10-31T06:03:02;24.27;;;9.68;;
31638;SDS011;18248;51.522;7.020;2022-10-31T06:06:02;21.27;;;8.95;;
31638;SDS011;18248;51.522;7.020;2022-10-31T06:09:01;20.77;;;9.32;;
31638;SDS011;18248;51.522;7.020;2022-10-31T06:12:00;16.20;;;8.32;;
31638;SDS011;18248;51.522;7.020;2022-10-31T06:14:58;17.90;;;8.20;;
31638;SDS011;18248;51.522;7.020;2022-10-31T06:18:06;18.40;;;9.00;;
31638;SDS011;18248;51.522;7.020;2022-10-31T06:21:04;16.98;;;8.32;;
31638;SDS011;18248;51.522;7.020;2022-10-31T06:24:03;17.23;;;8.52;;
31638;SDS011;18248;51.522;7.020;2022-10-31T06:27:03;17.42;;;8.13;;
31638;SDS011;18248;51.522;7.020;2022-10-31T06:30:02;12.93;;;8.05;;
31638;SDS011;18248;51.522;7.020;2022-10-31T06:33:01;13.32;;;8.32;;
31638;SDS011;18248;51.522;7.020;2022-10-31T06:36:02;17.40;;;9.25;;
31638;SDS011;18248;51.522;7.020;2022-10-31T06:39:01;18.40;;;9.75;;
31638;SDS011;18248;51.522;7.020;2022-10-31T06:41:59;21.95;;;11.65;;
31638;SDS011;18248;51.522;7.020;2022-10-31T06:44:58;24.15;;;10.40;;
31638;SDS011;18248;51.522;7.020;2022-10-31T06:47:57;29.90;;;13.80;;
31638;SDS011;18248;51.522;7.020;2022-10-31T06:50:58;30.17;;;13.80;;
31638;SDS011;18248;51.522;7.020;2022-10-31T06:53:57;19.92;;;13.23;;
31638;SDS011;18248;51.522;7.020;2022-10-31T06:56:57;28.02;;;13.52;;
31638;SDS011;18248;51.522;7.020;2022-10-31T06:59:56;30.35;;;17.33;;
31638;SDS011;18248;51.522;7.020;2022-10-31T07:03:04;29.67;;;13.27;;
31638;SDS011;18248;51.522;7.020;2022-10-31T07:06:04;21.83;;;11.75;;
31638;SDS011;18248;51.522;7.020;2022-10-31T07:09:03;18.45;;;9.95;;
31638;SDS011;18248;51.522;7.020;2022-10-31T07:12:03;25.15;;;11.02;;
31638;SDS011;18248;51.522;7.020;2022-10-31T07:15:02;30.13;;;12.38;;
31638;SDS011;18248;51.522;7.020;2022-10-31T07:18:01;20.13;;;9.88;;
31638;SDS011;18248;51.522;7.020;2022-10-31T07:21:04;15.38;;;8.82;;
31638;SDS011;18248;51.522;7.020;2022-10-31T07:24:03;15.20;;;9.32;;
31638;SDS011;18248;51.522;7.020;2022-10-31T07:27:03;22.30;;;12.00;;
31638;SDS011;18248;51.522;7.020;2022-10-31T07:30:02;29.70;;;15.05;;
31638;SDS011;18248;51.522;7.020;2022-10-31T07:33:02;21.08;;;11.18;;
31638;SDS011;18248;51.522;7.020;2022-10-31T07:36:01;17.58;;;10.23;;
31638;SDS011;18248;51.522;7.020;2022-10-31T07:38:59;22.63;;;13.18;;
31638;SDS011;18248;51.522;7.020;2022-10-31T07:42:00;34.38;;;17.38;;
31638;SDS011;18248;51.522;7.020;2022-10-31T07:44:58;26.85;;;12.80;;
31638;SDS011;18248;51.522;7.020;2022-10-31T07:47:57;24.45;;;11.82;;
31638;SDS011;18248;51.522;7.020;2022-10-31T07:50:55;30.58;;;11.93;;
31638;SDS011;18248;51.522;7.020;2022-10-31T07:53:54;28.80;;;11.75;;
31638;SDS011;18248;51.522;7.020;2022-10-31T07:56:52;24.83;;;11.85;;
31638;SDS011;18248;51.522;7.020;2022-10-31T07:59:51;28.23;;;14.30;;
31638;SDS011;18248;51.522;7.020;2022-10-31T08:02:56;32.35;;;13.77;;
31638;SDS011;18248;51.522;7.020;2022-10-31T08:05:57;31.60;;;15.35;;
31638;SDS011;18248;51.522;7.020;2022-10-31T08:08:55;40.22;;;17.33;;
31638;SDS011;18248;51.522;7.020;2022-10-31T08:11:54;43.85;;;18.98;;
31638;SDS011;18248;51.522;7.020;2022-10-31T08:14:52;35.65;;;14.63;;
31638;SDS011;18248;51.522;7.020;2022-10-31T08:17:51;34.13;;;15.48;;
31638;SDS011;18248;51.522;7.020;2022-10-31T08:20:49;31.88;;;14.65;;
31638;SDS011;18248;51.522;7.020;2022-10-31T08:23:48;30.95;;;14.77;;
31638;SDS011;18248;51.522;7.020;2022-10-31T08:26:47;37.28;;;14.48;;
31638;SDS011;18248;51.522;7.020;2022-10-31T08:29:45;25.63;;;13.38;;
31638;SDS011;18248;51.522;7.020;2022-10-31T08:32:44;29.40;;;14.23;;
31638;SDS011;18248;51.522;7.020;2022-10-31T08:35:43;32.33;;;14.38;;
31638;SDS011;18248;51.522;7.020;2022-10-31T08:38:42;36.75;;;15.48;;
31638;SDS011;18248;51.522;7.020;2022-10-31T08:41:40;30.80;;;16.38;;
31638;SDS011;18248;51.522;7.020;2022-10-31T08:44:39;39.63;;;17.67;;
31638;SDS011;18248;51.522;7.020;2022-10-31T08:47:37;34.97;;;17.02;;
31638;SDS011;18248;51.522;7.020;2022-10-31T08:50:36;37.00;;;18.83;;
31638;SDS011;18248;51.522;7.020;2022-10-31T08:53:35;37.72;;;17.67;;
31638;SDS011;18248;51.522;7.020;2022-10-31T08:56:33;52.22;;;20.05;;
31638;SDS011;18248;51.522;7.020;2022-10-31T08:59:32;42.35;;;18.30;;
31638;SDS011;18248;51.522;7.020;2022-10-31T09:02:30;48.45;;;20.95;;
31638;SDS011;18248;51.522;7.020;2022-10-31T09:05:29;44.33;;;18.65;;
31638;SDS011;18248;51.522;7.020;2022-10-31T09:08:29;41.50;;;19.90;;
31638;SDS011;18248;51.522;7.020;2022-10-31T09:11:29;46.95;;;21.33;;
31638;SDS011;18248;51.522;7.020;2022-10-31T09:14:29;45.78;;;20.38;;
31638;SDS011;18248;51.522;7.020;2022-10-31T09:17:27;40.00;;;17.55;;
31638;SDS011;18248;51.522;7.020;2022-10-31T09:20:27;40.50;;;18.45;;
31638;SDS011;18248;51.522;7.020;2022-10-31T09:23:26;32.60;;;17.50;;
31638;SDS011;18248;51.522;7.020;2022-10-31T09:26:25;37.50;;;17.70;;
31638;SDS011;18248;51.522;7.020;2022-10-31T09:29:24;37.28;;;17.65;;
31638;SDS011;18248;51.522;7.020;2022-10-31T09:32:22;35.72;;;16.75;;
31638;SDS011;18248;51.522;7.020;2022-10-31T09:35:21;34.85;;;16.55;;
31638;SDS011;18248;51.522;7.020;2022-10-31T09:38:20;41.83;;;18.25;;
31638;SDS011;18248;51.522;7.020;2022-10-31T09:41:20;37.60;;;17.70;;
31638;SDS011;18248;51.522;7.020;2022-10-31T09:51:10;32.10;;;17.65;;
31638;SDS011;18248;51.522;7.020;2022-10-31T09:54:20;42.47;;;19.08;;
31638;SDS011;18248;51.522;7.020;2022-10-31T09:57:28;42.05;;;18.52;;
31638;SDS011;18248;51.522;7.020;2022-10-31T10:00:32;31.23;;;16.95;;
31638;SDS011;18248;51.522;7.020;2022-10-31T10:03:35;37.08;;;18.38;;
31638;SDS011;18248;51.522;7.020;2022-10-31T10:06:45;40.30;;;18.92;;
31638;SDS011;18248;51.522;7.020;2022-10-31T10:09:47;45.53;;;19.50;;
31638;SDS011;18248;51.522;7.020;2022-10-31T10:23:51;42.10;;;19.65;;
31638;SDS011;18248;51.522;7.020;2022-10-31T10:29:25;37.20;;;20.43;;
31638;SDS011;18248;51.522;7.020;2022-10-31T10:32:31;34.92;;;18.88;;
31638;SDS011;18248;51.522;7.020;2022-10-31T10:39:00;39.97;;;18.63;;
31638;SDS011;18248;51.522;7.020;2022-10-31T10:42:13;37.22;;;19.02;;
31638;SDS011;18248;51.522;7.020;2022-10-31T10:45:32;35.70;;;18.50;;
31638;SDS011;18248;51.522;7.020;2022-10-31T10:48:58;36.13;;;18.85;;
31638;SDS011;18248;51.522;7.020;2022-10-31T10:58:37;36.92;;;17.73;;
31638;SDS011;18248;51.522;7.020;2022-10-31T11:01:39;39.15;;;20.02;;
31638;SDS011;18248;51.522;7.020;2022-10-31T11:04:39;40.92;;;18.92;;
31638;SDS011;18248;51.522;7.020;2022-10-31T11:07:39;41.00;;;19.00;;
31638;SDS011;18248;51.522;7.020;2022-10-31T11:10:37;33.83;;;17.67;;
31638;SDS011;18248;51.522;7.020;2022-10-31T11:13:36;30.55;;;17.80;;
31638;SDS011;18248;51.522;7.020;2022-10-31T11:16:36;32.75;;;17.35;;
31638;SDS011;18248;51.522;7.020;2022-10-31T11:19:36;31.83;;;17.38;;
31638;SDS011;18248;51.522;7.020;2022-10-31T11:22:35;42.97;;;19.30;;
31638;SDS011;18248;51.522;7.020;2022-10-31T11:25:33;37.60;;;17.35;;
31638;SDS011;18248;51.522;7.020;2022-10-31T11:28:32;36.95;;;18.23;;
31638;SDS011;18248;51.522;7.020;2022-10-31T11:31:32;30.83;;;15.32;;
31638;SDS011;18248;51.522;7.020;2022-10-31T11:34:35;39.70;;;17.52;;
31638;SDS011;18248;51.522;7.020;2022-10-31T11:37:42;40.35;;;19.15;;
31638;SDS011;18248;51.522;7.020;2022-10-31T11:40:51;37.28;;;17.67;;
31638;SDS011;18248;51.522;7.020;2022-10-31T11:43:56;38.15;;;18.48;;
31638;SDS011;18248;51.522;7.020;2022-10-31T11:46:57;36.60;;;17.77;;
31638;SDS011;18248;51.522;7.020;2022-10-31T11:50:00;34.58;;;16.92;;
31638;SDS011;18248;51.522;7.020;2022-10-31T11:53:00;38.45;;;16.48;;
31638;SDS011;18248;51.522;7.020;2022-10-31T11:56:10;34.42;;;15.90;;
31638;SDS011;18248;51.522;7.020;2022-10-31T11:59:21;31.70;;;17.77;;
31638;SDS011;18248;51.522;7.020;2022-10-31T12:02:26;34.40;;;15.63;;
31638;SDS011;18248;51.522;7.020;2022-10-31T12:05:25;27.77;;;15.10;;
31638;SDS011;18248;51.522;7.020;2022-10-31T12:08:31;35.10;;;16.92;;
31638;SDS011;18248;51.522;7.020;2022-10-31T12:11:36;30.10;;;15.82;;
31638;SDS011;18248;51.522;7.020;2022-10-31T12:21:40;29.13;;;14.20;;
31638;SDS011;18248;51.522;7.020;2022-10-31T12:24:57;27.65;;;14.30;;
31638;SDS011;18248;51.522;7.020;2022-10-31T12:41:36;27.63;;;13.48;;
31638;SDS011;18248;51.522;7.020;2022-10-31T12:51:45;32.97;;;13.35;;
31638;SDS011;18248;51.522;7.020;2022-10-31T12:55:03;27.55;;;11.68;;
31638;SDS011;18248;51.522;7.020;2022-10-31T12:58:21;29.25;;;11.45;;
31638;SDS011;18248;51.522;7.020;2022-10-31T13:04:56;33.97;;;11.38;;
31638;SDS011;18248;51.522;7.020;2022-10-31T13:08:17;24.15;;;10.48;;
31638;SDS011;18248;51.522;7.020;2022-10-31T13:11:21;20.90;;;9.93;;
31638;SDS011;18248;51.522;7.020;2022-10-31T13:17:42;25.75;;;11.70;;
31638;SDS011;18248;51.522;7.020;2022-10-31T13:20:46;27.38;;;10.73;;
31638;SDS011;18248;51.522;7.020;2022-10-31T13:23:47;22.55;;;11.50;;
31638;SDS011;18248;51.522;7.020;2022-10-31T13:26:50;24.35;;;11.40;;
31638;SDS011;18248;51.522;7.020;2022-10-31T13:33:01;36.40;;;11.80;;
31638;SDS011;18248;51.522;7.020;2022-10-31T13:46:25;28.80;;;10.57;;
31638;SDS011;18248;51.522;7.020;2022-10-31T13:52:31;32.22;;;11.32;;
31638;SDS011;18248;51.522;7.020;2022-10-31T13:58:36;24.13;;;9.90;;
31638;SDS011;18248;51.522;7.020;2022-10-31T14:01:35;23.80;;;9.52;;
31638;SDS011;18248;51.522;7.020;2022-10-31T14:04:38;28.58;;;11.23;;
31638;SDS011;18248;51.522;7.020;2022-10-31T14:07:44;19.65;;;9.77;;
31638;SDS011;18248;51.522;7.020;2022-10-31T14:10:48;27.10;;;9.23;;
31638;SDS011;18248;51.522;7.020;2022-10-31T14:13:49;19.75;;;8.95;;
31638;SDS011;18248;51.522;7.020;2022-10-31T14:16:53;18.70;;;9.30;;
31638;SDS011;18248;51.522;7.020;2022-10-31T14:20:02;19.98;;;9.80;;
31638;SDS011;18248;51.522;7.020;2022-10-31T14:23:39;29.98;;;10.50;;
31638;SDS011;18248;51.522;7.020;2022-10-31T14:26:38;20.95;;;9.52;;
31638;SDS011;18248;51.522;7.020;2022-10-31T14:29:37;26.15;;;10.25;;
31638;SDS011;18248;51.522;7.020;2022-10-31T14:32:36;18.35;;;9.13;;
31638;SDS011;18248;51.522;7.020;2022-10-31T14:35:56;30.45;;;8.50;;
31638;SDS011;18248;51.522;7.020;2022-10-31T14:39:21;16.58;;;6.00;;
31638;SDS011;18248;51.522;7.020;2022-10-31T14:48:53;14.02;;;5.40;;
31638;SDS011;18248;51.522;7.020;2022-10-31T14:52:05;13.23;;;5.18;;
31638;SDS011;18248;51.522;7.020;2022-10-31T14:55:09;16.87;;;4.77;;
31638;SDS011;18248;51.522;7.020;2022-10-31T14:58:12;16.05;;;5.63;;
31638;SDS011;18248;51.522;7.020;2022-10-31T15:04:27;16.15;;;5.10;;
31638;SDS011;18248;51.522;7.020;2022-10-31T15:07:27;20.27;;;5.45;;
31638;SDS011;18248;51.522;7.020;2022-10-31T15:10:30;14.50;;;4.78;;
31638;SDS011;18248;51.522;7.020;2022-10-31T15:13:31;15.63;;;4.45;;
31638;SDS011;18248;51.522;7.020;2022-10-31T15:16:34;15.93;;;4.95;;
31638;SDS011;18248;51.522;7.020;2022-10-31T15:19:34;8.38;;;4.05;;
31638;SDS011;18248;51.522;7.020;2022-10-31T15:22:34;15.40;;;5.25;;
31638;SDS011;18248;51.522;7.020;2022-10-31T15:25:33;15.45;;;4.50;;
31638;SDS011;18248;51.522;7.020;2022-10-31T15:28:32;14.45;;;4.75;;
31638;SDS011;18248;51.522;7.020;2022-10-31T15:31:31;11.70;;;4.55;;
31638;SDS011;18248;51.522;7.020;2022-10-31T15:34:37;11.82;;;5.07;;
31638;SDS011;18248;51.522;7.020;2022-10-31T15:37:38;20.13;;;5.63;;
31638;SDS011;18248;51.522;7.020;2022-10-31T15:40:36;17.95;;;5.50;;
31638;SDS011;18248;51.522;7.020;2022-10-31T15:43:36;12.05;;;4.78;;
31638;SDS011;18248;51.522;7.020;2022-10-31T15:46:36;16.83;;;5.68;;
31638;SDS011;18248;51.522;7.020;2022-10-31T15:49:42;24.27;;;8.63;;
31638;SDS011;18248;51.522;7.020;2022-10-31T15:52:48;21.05;;;7.60;;
31638;SDS011;18248;51.522;7.020;2022-10-31T15:55:57;28.33;;;10.32;;
31638;SDS011;18248;51.522;7.020;2022-10-31T15:58:59;27.17;;;9.75;;
31638;SDS011;18248;51.522;7.020;2022-10-31T16:02:00;24.05;;;10.90;;
31638;SDS011;18248;51.522;7.020;2022-10-31T16:05:01;28.40;;;10.75;;
31638;SDS011;18248;51.522;7.020;2022-10-31T16:08:00;24.45;;;10.20;;
31638;SDS011;18248;51.522;7.020;2022-10-31T16:17:13;20.80;;;9.70;;
31638;SDS011;18248;51.522;7.020;2022-10-31T16:20:26;24.02;;;11.07;;
31638;SDS011;18248;51.522;7.020;2022-10-31T16:23:26;28.00;;;13.48;;
31638;SDS011;18248;51.522;7.020;2022-10-31T16:26:25;35.47;;;14.02;;
31638;SDS011;18248;51.522;7.020;2022-10-31T16:29:26;25.52;;;13.27;;
31638;SDS011;18248;51.522;7.020;2022-10-31T16:32:53;39.15;;;16.70;;
31638;SDS011;18248;51.522;7.020;2022-10-31T16:35:52;24.85;;;12.40;;
31638;SDS011;18248;51.522;7.020;2022-10-31T16:38:53;33.13;;;12.10;;
31638;SDS011;18248;51.522;7.020;2022-10-31T16:41:52;29.02;;;12.20;;
31638;SDS011;18248;51.522;7.020;2022-10-31T16:44:54;31.13;;;11.05;;
31638;SDS011;18248;51.522;7.020;2022-10-31T16:47:54;26.85;;;11.52;;
31638;SDS011;18248;51.522;7.020;2022-10-31T16:51:08;23.75;;;11.60;;
31638;SDS011;18248;51.522;7.020;2022-10-31T16:54:07;25.30;;;12.05;;
31638;SDS011;18248;51.522;7.020;2022-10-31T16:57:12;28.77;;;10.70;;
31638;SDS011;18248;51.522;7.020;2022-10-31T17:00:17;29.67;;;12.25;;
31638;SDS011;18248;51.522;7.020;2022-10-31T17:03:18;30.20;;;11.57;;
31638;SDS011;18248;51.522;7.020;2022-10-31T17:06:17;32.10;;;12.85;;
31638;SDS011;18248;51.522;7.020;2022-10-31T17:09:17;23.63;;;11.98;;
31638;SDS011;18248;51.522;7.020;2022-10-31T17:12:17;25.90;;;12.00;;
31638;SDS011;18248;51.522;7.020;2022-10-31T17:15:23;22.33;;;11.55;;
31638;SDS011;18248;51.522;7.020;2022-10-31T17:18:25;29.40;;;11.02;;
31638;SDS011;18248;51.522;7.020;2022-10-31T17:21:29;26.13;;;11.50;;
31638;SDS011;18248;51.522;7.020;2022-10-31T17:24:28;35.03;;;15.32;;
31638;SDS011;18248;51.522;7.020;2022-10-31T17:27:27;24.80;;;12.77;;
31638;SDS011;18248;51.522;7.020;2022-10-31T17:30:25;29.95;;;13.40;;
31638;SDS011;18248;51.522;7.020;2022-10-31T17:33:24;29.33;;;13.05;;
31638;SDS011;18248;51.522;7.020;2022-10-31T17:36:22;26.98;;;12.07;;
31638;SDS011;18248;51.522;7.020;2022-10-31T17:39:21;23.55;;;11.70;;
31638;SDS011;18248;51.522;7.020;2022-10-31T17:42:20;21.88;;;11.23;;
31638;SDS011;18248;51.522;7.020;2022-10-31T17:45:19;24.60;;;11.70;;
31638;SDS011;18248;51.522;7.020;2022-10-31T17:48:18;24.98;;;11.60;;
31638;SDS011;18248;51.522;7.020;2022-10-31T17:51:16;28.60;;;12.20;;
31638;SDS011;18248;51.522;7.020;2022-10-31T17:54:15;27.27;;;13.13;;
31638;SDS011;18248;51.522;7.020;2022-10-31T17:57:15;25.70;;;13.38;;
31638;SDS011;18248;51.522;7.020;2022-10-31T18:00:17;24.90;;;12.18;;
31638;SDS011;18248;51.522;7.020;2022-10-31T18:03:21;32.72;;;13.85;;
31638;SDS011;18248;51.522;7.020;2022-10-31T18:06:19;24.10;;;12.63;;
31638;SDS011;18248;51.522;7.020;2022-10-31T18:09:18;41.15;;;14.73;;
31638;SDS011;18248;51.522;7.020;2022-10-31T18:12:17;39.38;;;16.00;;
31638;SDS011;18248;51.522;7.020;2022-10-31T18:15:15;30.65;;;12.75;;
31638;SDS011;18248;51.522;7.020;2022-10-31T18:18:15;21.80;;;11.95;;
31638;SDS011;18248;51.522;7.020;2022-10-31T18:21:13;32.50;;;13.30;;
31638;SDS011;18248;51.522;7.020;2022-10-31T18:24:12;27.40;;;12.55;;
31638;SDS011;18248;51.522;7.020;2022-10-31T18:27:10;26.30;;;11.82;;
31638;SDS011;18248;51.522;7.020;2022-10-31T18:30:09;25.98;;;13.23;;
31638;SDS011;18248;51.522;7.020;2022-10-31T18:33:07;25.52;;;13.95;;
31638;SDS011;18248;51.522;7.020;2022-10-31T18:36:06;32.80;;;14.85;;
31638;SDS011;18248;51.522;7.020;2022-10-31T18:39:06;36.17;;;13.80;;
31638;SDS011;18248;51.522;7.020;2022-10-31T18:42:05;33.05;;;13.57;;
31638;SDS011;18248;51.522;7.020;2022-10-31T18:45:04;27.15;;;11.70;;
31638;SDS011;18248;51.522;7.020;2022-10-31T18:48:03;33.90;;;14.57;;
31638;SDS011;18248;51.522;7.020;2022-10-31T18:51:03;26.98;;;12.27;;
31638;SDS011;18248;51.522;7.020;2022-10-31T18:54:02;25.27;;;12.30;;
31638;SDS011;18248;51.522;7.020;2022-10-31T18:57:01;24.15;;;10.15;;
31638;SDS011;18248;51.522;7.020;2022-10-31T19:00:00;23.63;;;7.35;;
31638;SDS011;18248;51.522;7.020;2022-10-31T19:02:58;23.65;;;8.80;;
31638;SDS011;18248;51.522;7.020;2022-10-31T19:05:57;14.00;;;6.70;;
31638;SDS011;18248;51.522;7.020;2022-10-31T19:08:59;15.55;;;5.90;;
31638;SDS011;18248;51.522;7.020;2022-10-31T19:11:59;15.50;;;5.00;;
31638;SDS011;18248;51.522;7.020;2022-10-31T19:14:59;15.27;;;5.50;;
31638;SDS011;18248;51.522;7.020;2022-10-31T19:17:58;16.73;;;5.47;;
31638;SDS011;18248;51.522;7.020;2022-10-31T19:20:57;12.45;;;4.95;;
31638;SDS011;18248;51.522;7.020;2022-10-31T19:23:55;14.55;;;4.57;;
31638;SDS011;18248;51.522;7.020;2022-10-31T19:26:55;19.33;;;4.90;;
31638;SDS011;18248;51.522;7.020;2022-10-31T19:29:55;19.88;;;5.60;;
31638;SDS011;18248;51.522;7.020;2022-10-31T19:32:53;13.52;;;5.85;;
31638;SDS011;18248;51.522;7.020;2022-10-31T19:36:02;12.38;;;4.88;;
31638;SDS011;18248;51.522;7.020;2022-10-31T19:39:06;16.95;;;4.90;;
31638;SDS011;18248;51.522;7.020;2022-10-31T19:42:06;17.63;;;6.90;;
31638;SDS011;18248;51.522;7.020;2022-10-31T19:45:05;21.83;;;6.55;;
31638;SDS011;18248;51.522;7.020;2022-10-31T19:48:05;16.08;;;5.07;;
31638;SDS011;18248;51.522;7.020;2022-10-31T19:51:05;18.85;;;6.18;;
31638;SDS011;18248;51.522;7.020;2022-10-31T19:54:05;16.83;;;5.32;;
31638;SDS011;18248;51.522;7.020;2022-10-31T19:57:04;15.40;;;5.40;;
31638;SDS011;18248;51.522;7.020;2022-10-31T20:00:04;12.43;;;4.78;;
31638;SDS011;18248;51.522;7.020;2022-10-31T20:03:03;14.73;;;5.15;;
31638;SDS011;18248;51.522;7.020;2022-10-31T20:06:02;12.63;;;4.60;;
31638;SDS011;18248;51.522;7.020;2022-10-31T20:09:02;15.98;;;6.30;;
31638;SDS011;18248;51.522;7.020;2022-10-31T20:12:03;19.65;;;6.22;;
31638;SDS011;18248;51.522;7.020;2022-10-31T20:15:01;17.23;;;7.22;;
31638;SDS011;18248;51.522;7.020;2022-10-31T20:18:00;17.20;;;6.30;;
31638;SDS011;18248;51.522;7.020;2022-10-31T20:21:34;20.30;;;7.45;;
31638;SDS011;18248;51.522;7.020;2022-10-31T20:24:25;15.60;;;6.47;;
31638;SDS011;18248;51.522;7.020;2022-10-31T20:27:24;19.88;;;7.93;;
31638;SDS011;18248;51.522;7.020;2022-10-31T20:30:22;15.23;;;5.75;;
31638;SDS011;18248;51.522;7.020;2022-10-31T20:33:21;15.48;;;6.30;;
31638;SDS011;18248;51.522;7.020;2022-10-31T20:36:20;15.82;;;6.93;;
31638;SDS011;18248;51.522;7.020;2022-10-31T20:39:20;13.48;;;5.03;;